createdAt,value
2023-05-14T00:00:59.847Z,100986.56
2023-05-14T00:03:28.266Z,100984.34
2023-05-14T00:05:56.088Z,100986.09
2023-05-14T00:08:25.275Z,100987.63
2023-05-14T00:10:53.983Z,100989.34
2023-05-14T00:13:21.736Z,100990.41
2023-05-14T00:15:49.497Z,100987.63
2023-05-14T00:18:17.760Z,100988.94
2023-05-14T00:20:45.578Z,100981.94
2023-05-14T00:23:13.593Z,100986.72
2023-05-14T00:25:43.306Z,100982.41
2023-05-14T00:28:11.089Z,100984.28
2023-05-14T00:30:39.733Z,100974.84
2023-05-14T00:33:08.332Z,100978.13
2023-05-14T00:35:36.267Z,100980.00
2023-05-14T00:38:04.792Z,100975.44
2023-05-14T00:40:33.269Z,100980.56
2023-05-14T00:43:02.521Z,100978.22
2023-05-14T00:45:30.318Z,100971.00
2023-05-14T00:47:58.747Z,100974.00
2023-05-14T00:50:27.112Z,100970.31
2023-05-14T00:52:55.022Z,100962.03
2023-05-14T00:55:24.264Z,100962.03
2023-05-14T00:57:52.302Z,100969.81
2023-05-14T01:00:22.129Z,100971.47
2023-05-14T01:02:50.599Z,100971.47
2023-05-14T01:05:18.680Z,100969.81
2023-05-14T01:07:56.781Z,100973.53
2023-05-14T01:10:30.043Z,100973.53
2023-05-14T01:13:05.085Z,100967.63
2023-05-14T01:15:37.087Z,100966.47
2023-05-14T01:18:08.067Z,100964.75
2023-05-14T01:20:36.447Z,100970.31
2023-05-14T01:23:05.956Z,100963.84
2023-05-14T01:25:34.281Z,100958.69
2023-05-14T01:28:08.059Z,100954.31
2023-05-14T01:30:38.530Z,100942.13
2023-05-14T01:33:11.114Z,100950.34
2023-05-14T01:35:39.777Z,100953.28
2023-05-14T01:38:12.314Z,100962.81
2023-05-14T01:40:41.394Z,100967.22
2023-05-14T01:43:09.702Z,100954.31
2023-05-14T01:45:38.298Z,100952.69
2023-05-14T01:48:07.240Z,100960.16
2023-05-14T01:50:35.107Z,100962.22
2023-05-14T01:53:02.925Z,100963.88
2023-05-14T01:55:32.125Z,100955.84
2023-05-14T01:57:59.940Z,100964.69
2023-05-14T02:00:28.168Z,100954.22
2023-05-14T02:02:56.509Z,100960.25
2023-05-14T02:05:24.396Z,100968.50
2023-05-14T02:07:52.823Z,100966.53
2023-05-14T02:10:21.256Z,100956.66
2023-05-14T02:12:50.542Z,100963.03
2023-05-14T02:15:18.408Z,100959.56
2023-05-14T02:17:46.966Z,100958.75
2023-05-14T02:20:15.093Z,100960.25
2023-05-14T02:22:45.658Z,100962.56
2023-05-14T02:25:14.216Z,100950.16
2023-05-14T02:27:42.011Z,100947.97
2023-05-14T02:30:12.650Z,100959.88
2023-05-14T02:32:40.567Z,100948.94
2023-05-14T02:35:09.264Z,100950.56
2023-05-14T02:37:37.040Z,100948.94
2023-05-14T02:40:05.729Z,100950.44
2023-05-14T02:42:33.506Z,100942.44
2023-05-14T02:45:01.271Z,100948.38
2023-05-14T02:47:31.011Z,100945.69
2023-05-14T02:49:58.824Z,100942.44
2023-05-14T02:52:26.639Z,100947.78
2023-05-14T02:54:54.456Z,100953.59
2023-05-14T02:57:22.239Z,100946.16
2023-05-14T02:59:50.033Z,100943.94
2023-05-14T03:02:18.722Z,100947.88
2023-05-14T03:04:48.273Z,100944.75
2023-05-14T03:07:16.056Z,100946.59
2023-05-14T03:09:44.282Z,100952.88
2023-05-14T03:12:12.695Z,100948.34
2023-05-14T03:14:40.505Z,100945.09
2023-05-14T03:17:09.012Z,100935.47
2023-05-14T03:19:36.900Z,100935.09
2023-05-14T03:22:06.269Z,100945.66
2023-05-14T03:24:34.623Z,100947.53
2023-05-14T03:27:02.389Z,100943.81
2023-05-14T03:29:30.504Z,100944.63
2023-05-14T03:31:58.937Z,100941.75
2023-05-14T03:34:26.803Z,100946.03
2023-05-14T03:36:54.561Z,100945.66
2023-05-14T03:39:24.212Z,100939.28
2023-05-14T03:41:51.776Z,100944.97
2023-05-14T03:44:19.648Z,100939.28
2023-05-14T03:46:47.970Z,100938.47
2023-05-14T03:49:15.784Z,100938.47
2023-05-14T03:51:43.550Z,100934.19
2023-05-14T03:54:11.833Z,100928.25
2023-05-14T03:56:41.144Z,100930.94
2023-05-14T03:59:08.930Z,100927.22
2023-05-14T04:01:37.424Z,100924.66
2023-05-14T04:04:05.589Z,100924.19
2023-05-14T04:06:34.146Z,100920.25
2023-05-14T04:09:02.544Z,100930.31
2023-05-14T04:11:30.316Z,100915.13
2023-05-14T04:13:59.457Z,100918.38
2023-05-14T04:16:27.846Z,100922.44
2023-05-14T04:18:55.768Z,100929.44
2023-05-14T04:21:23.568Z,100921.06
2023-05-14T04:23:52.129Z,100923.38
2023-05-14T04:26:20.085Z,100925.47
2023-05-14T04:28:47.900Z,100923.59
2023-05-14T04:31:17.519Z,100919.88
2023-05-14T04:33:45.120Z,100916.84
2023-05-14T04:36:12.882Z,100918.84
2023-05-14T04:38:42.098Z,100915.22
2023-05-14T04:41:09.876Z,100913.03
2023-05-14T04:43:37.625Z,100913.03
2023-05-14T04:46:06.219Z,100910.81
2023-05-14T04:48:35.380Z,100910.00
2023-05-14T04:51:04.974Z,100907.34
2023-05-14T04:53:34.634Z,100904.44
2023-05-14T04:56:02.391Z,100908.16
2023-05-14T04:58:34.617Z,100915.34
2023-05-14T05:01:04.411Z,100922.31
2023-05-14T05:03:32.247Z,100926.84
2023-05-14T05:06:01.465Z,100918.59
2023-05-14T05:08:29.702Z,100917.22
2023-05-14T05:10:57.520Z,100923.13
2023-05-14T05:13:25.342Z,100931.38
2023-05-14T05:15:53.157Z,100924.75
2023-05-14T05:18:20.965Z,100939.13
2023-05-14T05:20:48.786Z,100944.72
2023-05-14T05:23:18.491Z,100951.44
2023-05-14T05:25:46.233Z,100938.56
2023-05-14T05:28:13.997Z,100935.66
2023-05-14T05:30:42.452Z,100938.09
2023-05-14T05:33:10.351Z,100933.81
2023-05-14T05:35:38.298Z,100933.44
2023-05-14T05:38:06.480Z,100939.13
2023-05-14T05:40:35.697Z,100937.16
2023-05-14T05:43:03.449Z,100942.72
2023-05-14T05:45:31.853Z,100945.97
2023-05-14T05:47:59.710Z,100943.31
2023-05-14T05:50:27.588Z,100947.03
2023-05-14T05:52:55.826Z,100946.56
2023-05-14T05:55:23.772Z,100951.91
2023-05-14T05:57:52.992Z,100953.16
2023-05-14T06:00:22.356Z,100948.63
2023-05-14T06:02:50.480Z,100948.63
2023-05-14T06:05:19.258Z,100953.16
2023-05-14T06:07:47.689Z,100958.97
2023-05-14T06:10:15.473Z,100959.78
2023-05-14T06:12:43.260Z,100960.22
2023-05-14T06:15:13.697Z,100961.28
2023-05-14T06:17:41.555Z,100959.66
2023-05-14T06:20:10.163Z,100961.28
2023-05-14T06:22:38.636Z,100971.72
2023-05-14T06:25:07.065Z,100967.66
2023-05-14T06:27:34.847Z,100957.00
2023-05-14T06:30:03.144Z,100959.66
2023-05-14T06:32:32.386Z,100958.47
2023-05-14T06:35:01.876Z,100959.06
2023-05-14T06:37:30.200Z,100963.59
2023-05-14T06:39:58.149Z,100958.25
2023-05-14T06:42:26.367Z,100966.00
2023-05-14T06:44:55.055Z,100970.78
2023-05-14T06:47:23.003Z,100963.59
2023-05-14T06:49:52.251Z,100966.38
2023-05-14T06:52:20.757Z,100970.91
2023-05-14T06:54:48.520Z,100965.56
2023-05-14T06:57:16.289Z,100969.28
2023-05-14T06:59:44.701Z,100959.19
2023-05-14T07:02:13.206Z,100967.19
2023-05-14T07:04:41.248Z,100971.50
2023-05-14T07:07:15.600Z,100974.16
2023-05-14T07:09:43.407Z,100970.69
2023-05-14T07:12:11.276Z,100965.13
2023-05-14T07:14:39.612Z,100972.31
2023-05-14T07:17:07.469Z,100971.50
2023-05-14T07:19:35.306Z,100975.81
2023-05-14T07:22:03.720Z,100972.53
2023-05-14T07:24:32.872Z,100973.72
2023-05-14T07:27:01.877Z,100974.53
2023-05-14T07:29:30.623Z,100971.03
2023-05-14T07:31:58.402Z,100974.31
2023-05-14T07:34:26.163Z,100977.00
2023-05-14T07:36:54.821Z,100976.16
2023-05-14T07:39:22.663Z,100975.94
2023-05-14T07:41:52.021Z,100975.81
2023-05-14T07:44:20.398Z,100969.66
2023-05-14T07:46:48.198Z,100966.16
2023-05-14T07:49:16.001Z,100956.53
2023-05-14T07:51:44.091Z,100968.00
2023-05-14T07:54:12.338Z,100964.31
2023-05-14T07:56:40.156Z,100959.78
2023-05-14T07:59:09.857Z,100963.03
2023-05-14T08:01:39.335Z,100952.34
2023-05-14T08:04:07.510Z,100960.50
2023-05-14T08:06:36.189Z,100960.50
2023-05-14T08:09:05.327Z,100962.34
2023-05-14T08:11:33.161Z,100969.78
2023-05-14T08:14:01.461Z,100960.69
2023-05-14T08:16:30.640Z,100957.94
2023-05-14T08:18:58.469Z,100956.06
2023-05-14T08:21:26.852Z,100958.50
2023-05-14T08:23:54.674Z,100955.97
2023-05-14T08:26:22.860Z,100957.38
2023-05-14T08:28:51.137Z,100967.59
2023-05-14T08:31:18.925Z,100969.81
2023-05-14T08:33:48.082Z,100959.69
2023-05-14T08:36:16.423Z,100961.47
2023-05-14T08:38:45.329Z,100956.25
2023-05-14T08:41:14.917Z,100962.97
2023-05-14T08:43:45.992Z,100964.53
2023-05-14T08:46:16.027Z,100966.13
2023-05-14T08:48:49.586Z,100965.66
2023-05-14T08:51:18.844Z,100959.63
2023-05-14T08:53:46.675Z,100966.47
2023-05-14T08:56:16.813Z,100956.84
2023-05-14T08:58:44.622Z,100957.28
2023-05-14T09:01:12.416Z,100958.00
2023-05-14T09:03:41.739Z,100959.19
2023-05-14T09:06:10.444Z,100952.53
2023-05-14T09:08:39.778Z,100953.63
2023-05-14T09:11:08.383Z,100958.66
2023-05-14T09:13:41.007Z,100952.13
2023-05-14T09:16:09.645Z,100953.53
2023-05-14T09:18:37.975Z,100950.38
2023-05-14T09:21:06.092Z,100944.47
2023-05-14T09:23:35.260Z,100931.31
2023-05-14T09:26:06.958Z,100927.81
2023-05-14T09:28:34.753Z,100942.22
2023-05-14T09:31:04.240Z,100935.22
2023-05-14T09:33:32.844Z,100935.53
2023-05-14T09:36:01.284Z,100935.63
2023-05-14T09:38:32.362Z,100914.94
2023-05-14T09:41:00.768Z,100924.09
2023-05-14T09:43:29.908Z,100924.44
2023-05-14T09:45:57.684Z,100926.88
2023-05-14T09:48:26.363Z,100920.81
2023-05-14T09:50:54.197Z,100927.63
2023-05-14T09:53:22.216Z,100920.28
2023-05-14T09:55:53.224Z,100913.88
2023-05-14T09:58:21.326Z,100914.78
2023-05-14T10:00:52.068Z,100919.56
2023-05-14T10:03:21.344Z,100913.84
2023-05-14T10:05:51.092Z,100916.16
2023-05-14T10:08:23.451Z,100906.44
2023-05-14T10:10:54.760Z,100914.44
2023-05-14T10:13:28.382Z,100909.22
2023-05-14T10:16:02.896Z,100910.19
2023-05-14T10:18:37.188Z,100909.50
2023-05-14T10:21:06.731Z,100893.22
2023-05-14T10:23:34.656Z,100900.13
2023-05-14T10:26:03.812Z,100907.72
2023-05-14T10:28:32.827Z,100907.78
2023-05-14T10:31:02.038Z,100898.19
2023-05-14T10:33:30.299Z,100899.31
2023-05-14T10:36:01.033Z,100896.81
2023-05-14T10:38:29.830Z,100900.13
2023-05-14T10:41:00.036Z,100898.88
2023-05-14T10:43:29.334Z,100898.63
2023-05-14T10:45:57.446Z,100898.44
2023-05-14T10:48:27.569Z,100889.66
2023-05-14T10:50:57.730Z,100891.31
2023-05-14T10:53:34.517Z,100883.56
2023-05-14T10:56:07.456Z,100881.53
2023-05-14T10:58:39.110Z,100877.81
2023-05-14T11:01:08.446Z,100877.88
2023-05-14T11:03:43.300Z,100873.94
2023-05-14T11:06:12.199Z,100865.94
2023-05-14T11:08:40.975Z,100872.19
2023-05-14T11:11:10.725Z,100864.19
2023-05-14T11:13:38.630Z,100862.41
2023-05-14T11:18:41.061Z,100852.06
2023-05-14T11:21:10.251Z,100846.50
2023-05-14T11:23:38.055Z,100850.28
2023-05-14T11:26:06.399Z,100849.75
2023-05-14T11:28:34.222Z,100849.25
2023-05-14T11:31:02.199Z,100840.69
2023-05-14T11:33:31.155Z,100842.59
2023-05-14T11:35:58.924Z,100835.91
2023-05-14T11:38:28.077Z,100832.97
2023-05-14T11:40:56.906Z,100836.22
2023-05-14T11:43:25.188Z,100834.38
2023-05-14T11:45:53.918Z,100834.09
2023-05-14T11:48:22.615Z,100825.22
2023-05-14T11:50:52.407Z,100822.81
2023-05-14T11:53:20.831Z,100827.13
2023-05-14T11:55:50.554Z,100826.66
2023-05-14T11:58:19.526Z,100819.69
2023-05-14T12:00:47.902Z,100816.50
2023-05-14T12:03:16.367Z,100822.41
2023-05-14T12:05:57.035Z,100815.16
2023-05-14T12:08:28.548Z,100812.75
2023-05-14T12:10:59.607Z,100803.59
2023-05-14T12:13:27.853Z,100811.69
2023-05-14T12:15:57.814Z,100804.44
2023-05-14T12:18:26.427Z,100809.28
2023-05-14T12:20:54.262Z,100807.41
2023-05-14T12:23:27.157Z,100806.06
2023-05-14T12:25:54.920Z,100807.41
2023-05-14T12:28:24.704Z,100797.19
2023-05-14T12:30:57.756Z,100803.09
2023-05-14T12:33:26.575Z,100802.00
2023-05-14T12:35:58.967Z,100798.50
2023-05-14T12:38:28.581Z,100797.97
2023-05-14T12:40:56.862Z,100791.75
2023-05-14T12:43:30.175Z,100785.81
2023-05-14T12:45:58.083Z,100785.53
2023-05-14T12:48:26.582Z,100776.91
2023-05-14T12:50:54.721Z,100776.88
2023-05-14T12:53:22.525Z,100776.88
2023-05-14T12:55:50.326Z,100768.78
2023-05-14T12:58:18.434Z,100768.78
2023-05-14T13:00:47.674Z,100764.22
2023-05-14T13:03:15.604Z,100758.84
2023-05-14T13:05:43.628Z,100764.25
2023-05-14T13:08:14.666Z,100746.22
2023-05-14T13:10:42.435Z,100765.59
2023-05-14T13:13:10.445Z,100755.63
2023-05-14T13:15:38.653Z,100749.69
2023-05-14T13:18:08.190Z,100746.44
2023-05-14T13:20:36.403Z,100742.38
2023-05-14T13:23:04.215Z,100747.47
2023-05-14T13:25:32.026Z,100745.28
2023-05-14T13:28:00.115Z,100750.94
2023-05-14T13:30:27.986Z,100744.72
2023-05-14T13:32:55.918Z,100739.88
2023-05-14T13:35:25.487Z,100731.78
2023-05-14T13:37:53.458Z,100738.22
2023-05-14T13:40:21.354Z,100734.19
2023-05-14T13:42:49.397Z,100731.19
2023-05-14T13:45:17.206Z,100724.97
2023-05-14T13:47:45.043Z,100719.84
2023-05-14T13:50:13.445Z,100721.72
2023-05-14T13:52:42.596Z,100712.22
2023-05-14T13:55:10.742Z,100719.78
2023-05-14T13:57:39.963Z,100710.31
2023-05-14T14:00:11.114Z,100708.97
2023-05-14T14:02:38.938Z,100700.31
2023-05-14T14:05:07.991Z,100702.47
2023-05-14T14:07:35.854Z,100695.97
2023-05-14T14:10:05.674Z,100689.75
2023-05-14T14:12:34.089Z,100699.72
2023-05-14T14:15:02.841Z,100692.97
2023-05-14T14:17:30.801Z,100690.53
2023-05-14T14:19:59.004Z,100679.28
2023-05-14T14:22:28.983Z,100684.91
2023-05-14T14:24:57.205Z,100680.34
2023-05-14T14:27:26.994Z,100674.34
2023-05-14T14:29:56.727Z,100677.06
2023-05-14T14:32:24.528Z,100683.00
2023-05-14T14:34:52.884Z,100672.47
2023-05-14T14:37:21.279Z,100674.59
2023-05-14T14:39:50.811Z,100670.00
2023-05-14T14:42:18.663Z,100667.31
2023-05-14T14:44:47.834Z,100669.75
2023-05-14T14:47:15.648Z,100667.34
2023-05-14T14:49:44.081Z,100662.00
2023-05-14T14:52:11.916Z,100667.69
2023-05-14T14:54:39.711Z,100661.78
2023-05-14T14:57:08.070Z,100656.94
2023-05-14T14:59:36.333Z,100650.25
2023-05-14T15:02:06.404Z,100652.91
2023-05-14T15:04:35.320Z,100649.97
2023-05-14T15:07:03.415Z,100641.66
2023-05-14T15:09:31.334Z,100654.00
2023-05-14T15:11:59.731Z,100648.63
2023-05-14T15:14:27.942Z,100651.59
2023-05-14T15:16:55.816Z,100658.84
2023-05-14T15:19:25.578Z,100646.72
2023-05-14T15:21:53.754Z,100647.03
2023-05-14T15:24:23.893Z,100643.34
2023-05-14T15:26:53.428Z,100643.94
2023-05-14T15:29:21.596Z,100654.19
2023-05-14T15:31:49.376Z,100648.53
2023-05-14T15:34:17.767Z,100648.00
2023-05-14T15:36:46.944Z,100643.19
2023-05-14T15:39:14.737Z,100645.91
2023-05-14T15:41:43.114Z,100651.06
2023-05-14T15:44:10.899Z,100644.88
2023-05-14T15:46:38.899Z,100638.34
2023-05-14T15:49:07.316Z,100649.97
2023-05-14T15:51:35.888Z,100648.84
2023-05-14T15:54:05.075Z,100655.03
2023-05-14T15:56:33.469Z,100656.38
2023-05-14T15:59:01.250Z,100651.81
2023-05-14T16:01:29.134Z,100653.97
2023-05-14T16:03:57.564Z,100656.41
2023-05-14T16:06:26.365Z,100656.13
2023-05-14T16:08:54.448Z,100659.13
2023-05-14T16:11:24.184Z,100658.63
2023-05-14T16:13:51.974Z,100662.41
2023-05-14T16:16:20.733Z,100665.38
2023-05-14T16:18:49.081Z,100666.75
2023-05-14T16:21:16.936Z,100663.84
2023-05-14T16:23:44.691Z,100655.50
2023-05-14T16:26:13.051Z,100661.94
2023-05-14T16:28:42.777Z,100668.97
2023-05-14T16:31:10.574Z,100673.00
2023-05-14T16:33:38.881Z,100670.59
2023-05-14T16:36:07.095Z,100675.97
2023-05-14T16:38:38.520Z,100674.09
2023-05-14T16:41:10.351Z,100670.34
2023-05-14T16:43:38.122Z,100670.06
2023-05-14T16:46:07.419Z,100668.72
2023-05-14T16:48:35.952Z,100670.06
2023-05-14T16:51:03.763Z,100673.31
2023-05-14T16:53:31.558Z,100659.84
2023-05-14T16:55:59.939Z,100669.00
2023-05-14T16:58:28.402Z,100674.94
2023-05-14T17:00:56.234Z,100669.56
2023-05-14T17:03:25.522Z,100674.38
2023-05-14T17:05:53.485Z,100673.06
2023-05-14T17:08:21.294Z,100676.03
2023-05-14T17:10:49.697Z,100676.00
2023-05-14T17:13:17.738Z,100676.84
2023-05-14T17:15:45.549Z,100666.31
2023-05-14T17:18:13.967Z,100659.84
2023-05-14T17:20:43.158Z,100655.53
2023-05-14T17:23:10.897Z,100675.47
2023-05-14T17:25:39.399Z,100676.50
2023-05-14T17:28:07.206Z,100678.63
2023-05-14T17:30:34.992Z,100678.09
2023-05-14T17:33:03.416Z,100683.47
2023-05-14T17:35:35.678Z,100681.88
2023-05-14T17:38:05.434Z,100679.16
2023-05-14T17:40:33.470Z,100677.78
2023-05-14T17:43:01.378Z,100669.72
2023-05-14T17:45:36.380Z,100685.56
2023-05-14T17:48:10.756Z,100680.75
2023-05-14T17:50:39.795Z,100682.88
2023-05-14T17:53:08.911Z,100681.50
2023-05-14T17:55:42.663Z,100688.75
2023-05-14T17:58:11.366Z,100680.94
2023-05-14T18:00:39.461Z,100691.41
2023-05-14T18:03:08.048Z,100693.00
2023-05-14T18:05:36.111Z,100688.91
2023-05-14T18:08:03.868Z,100694.56
2023-05-14T18:10:33.297Z,100695.28
2023-05-14T18:13:01.108Z,100702.00
2023-05-14T18:15:29.301Z,100705.72
2023-05-14T18:17:57.141Z,100708.94
2023-05-14T18:20:24.993Z,100704.84
2023-05-14T18:22:52.794Z,100701.34
2023-05-14T18:25:20.905Z,100693.28
2023-05-14T18:27:50.055Z,100701.06
2023-05-14T18:30:17.878Z,100694.81
2023-05-14T18:32:46.842Z,100693.19
2023-05-14T18:35:14.820Z,100705.50
2023-05-14T18:37:42.582Z,100695.81
2023-05-14T18:40:16.355Z,100690.97
2023-05-14T18:42:46.207Z,100703.28
2023-05-14T18:45:15.631Z,100702.13
2023-05-14T18:47:43.495Z,100704.75
2023-05-14T18:50:11.818Z,100714.38
2023-05-14T18:52:39.767Z,100707.34
2023-05-14T18:55:08.211Z,100709.41
2023-05-14T18:57:37.601Z,100699.47
2023-05-14T19:00:06.403Z,100708.53
2023-05-14T19:02:36.021Z,100709.63
2023-05-14T19:05:04.057Z,100694.28
2023-05-14T19:07:32.435Z,100712.78
2023-05-14T19:10:00.430Z,100710.31
2023-05-14T19:12:28.825Z,100706.47
2023-05-14T19:14:56.649Z,100717.78
2023-05-14T19:17:25.038Z,100717.41
2023-05-14T19:19:54.456Z,100717.91
2023-05-14T19:22:22.846Z,100720.25
2023-05-14T19:27:24.703Z,100729.03
2023-05-14T19:29:52.533Z,100733.03
2023-05-14T19:32:20.310Z,100727.88
2023-05-14T19:34:49.500Z,100728.59
2023-05-14T19:37:20.072Z,100728.88
2023-05-14T19:39:48.584Z,100726.13
2023-05-14T19:42:16.499Z,100740.81
2023-05-14T19:44:44.314Z,100738.88
2023-05-14T19:47:12.800Z,100737.97
2023-05-14T19:49:40.714Z,100745.97
2023-05-14T19:52:08.531Z,100744.28
2023-05-14T19:54:38.395Z,100743.72
2023-05-14T19:57:06.983Z,100746.34
2023-05-14T19:59:34.810Z,100747.38
2023-05-14T20:02:03.236Z,100754.59
2023-05-14T20:04:31.101Z,100752.97
2023-05-14T20:06:58.942Z,100753.72
2023-05-14T20:09:27.646Z,100754.78
2023-05-14T20:11:56.763Z,100753.38
2023-05-14T20:14:24.599Z,100750.16
2023-05-14T20:16:53.562Z,100749.34
2023-05-14T20:19:22.169Z,100751.44
2023-05-14T20:21:50.052Z,100746.09
2023-05-14T20:24:18.062Z,100747.41
2023-05-14T20:26:45.819Z,100750.56
2023-05-14T20:29:15.642Z,100753.03
2023-05-14T20:31:43.632Z,100748.94
2023-05-14T20:34:11.373Z,100752.44
2023-05-14T20:36:39.137Z,100747.59
2023-05-14T20:39:07.365Z,100738.50
2023-05-14T20:41:35.417Z,100747.59
2023-05-14T20:44:03.160Z,100737.34
2023-05-14T20:46:32.576Z,100737.34
2023-05-14T20:49:01.920Z,100740.03
2023-05-14T20:51:29.687Z,100734.13
2023-05-14T20:53:57.659Z,100725.03
2023-05-14T20:56:26.352Z,100741.09
2023-05-14T20:58:54.114Z,100741.09
2023-05-14T21:01:22.759Z,100737.84
2023-05-14T21:03:52.140Z,100732.47
2023-05-14T21:06:20.092Z,100730.88
2023-05-14T21:08:47.901Z,100732.19
2023-05-14T21:11:15.658Z,100726.03
2023-05-14T21:13:44.174Z,100724.38
2023-05-14T21:16:12.965Z,100724.88
2023-05-14T21:18:40.855Z,100726.50
2023-05-14T21:21:10.096Z,100720.59
2023-05-14T21:23:38.429Z,100718.94
2023-05-14T21:26:06.359Z,100717.13
2023-05-14T21:28:34.171Z,100714.44
2023-05-14T21:31:02.382Z,100709.31
2023-05-14T21:33:30.167Z,100708.25
2023-05-14T21:35:57.988Z,100712.56
2023-05-14T21:38:27.918Z,100709.91
2023-05-14T21:40:55.690Z,100705.56
2023-05-14T21:43:23.496Z,100711.97
2023-05-14T21:45:51.997Z,100721.06
2023-05-14T21:48:20.834Z,100717.84
2023-05-14T21:50:48.713Z,100715.16
2023-05-14T21:53:17.111Z,100716.47
2023-05-14T21:55:46.343Z,100715.31
2023-05-14T21:58:14.213Z,100721.97
2023-05-14T22:00:42.488Z,100719.78
2023-05-14T22:03:10.415Z,100720.50
2023-05-14T22:05:38.289Z,100728.47
2023-05-14T22:08:07.177Z,100726.03
2023-05-14T22:10:36.015Z,100714.16
2023-05-14T22:13:05.164Z,100716.28
2023-05-14T22:15:33.497Z,100713.28
2023-05-14T22:18:03.085Z,100721.03
2023-05-14T22:20:30.730Z,100717.66
2023-05-14T22:22:59.083Z,100708.81
2023-05-14T22:25:27.230Z,100713.03
2023-05-14T22:27:55.161Z,100708.19
2023-05-14T22:30:25.067Z,100706.78
2023-05-14T22:32:52.879Z,100703.56
2023-05-14T22:35:21.251Z,100699.72
2023-05-14T22:37:49.576Z,100698.34
2023-05-14T22:40:17.338Z,100701.50
2023-05-14T22:42:45.234Z,100706.06
2023-05-14T22:45:13.693Z,100691.28
2023-05-14T22:47:42.884Z,100691.28
2023-05-14T22:50:12.121Z,100688.88
2023-05-14T22:52:40.692Z,100691.78
2023-05-14T22:55:09.309Z,100684.00
2023-05-14T22:57:37.163Z,100679.16
2023-05-14T23:00:07.559Z,100680.22
2023-05-14T23:02:35.754Z,100676.13
2023-05-14T23:05:05.434Z,100677.19
2023-05-14T23:07:33.621Z,100676.47
2023-05-14T23:10:01.836Z,100672.41
2023-05-14T23:12:29.669Z,100671.25
2023-05-14T23:14:59.616Z,100663.75
2023-05-14T23:17:27.851Z,100665.53
2023-05-14T23:19:55.806Z,100666.00
2023-05-14T23:22:25.533Z,100654.97
2023-05-14T23:24:53.306Z,100655.47
2023-05-14T23:27:21.070Z,100650.84
2023-05-14T23:29:49.520Z,100656.91
2023-05-14T23:32:17.297Z,100658.44
2023-05-14T23:34:45.079Z,100660.53
2023-05-14T23:37:13.555Z,100663.13
2023-05-14T23:39:42.718Z,100657.44
2023-05-14T23:42:12.030Z,100642.47
2023-05-14T23:44:40.311Z,100645.03
2023-05-14T23:47:08.784Z,100637.75
2023-05-14T23:49:36.686Z,100638.16
2023-05-14T23:52:05.269Z,100636.00
2023-05-14T23:54:33.037Z,100642.25
2023-05-14T23:57:05.045Z,100637.97
2023-05-14T23:59:33.464Z,100633.59
